Time;durP1;ratioP1;P1;durP2;ratioP2;P2;SDS_P1;SDS_P2;PMS_P1;PMS_P2;Temp;Humidity;BMP_temperature;BMP_pressure;BME280_temperature;BME280_humidity;BME280_pressure;Samples;Min_cycle;Max_cycle;Signal;HPM_P1;HPM_P2
2023/06/29 04:30:43;;;;;;;;;64.50;47.75;;;;;32.61;35.13;101077.97;5082083;27;45528;-74
2023/06/29 04:33:10;;;;;;;;;62.00;47.00;;;;;32.65;35.22;101079.28;5049868;28;45499;-74
2023/06/29 04:35:38;;;;;;;;;61.50;48.50;;;;;32.63;35.52;101075.88;5055017;28;45493;-75
2023/06/29 04:38:05;;;;;;;;;63.75;47.75;;;;;32.58;35.08;101075.59;5035628;28;45320;-74
2023/06/29 04:40:30;;;;;;;;;63.25;47.00;;;;;32.49;35.53;101068.53;5034373;28;46104;-74
2023/06/29 04:42:56;;;;;;;;;68.25;48.25;;;;;32.52;35.26;101082.00;5045513;28;45416;-75
2023/06/29 04:45:21;;;;;;;;;65.00;49.75;;;;;32.62;34.95;101082.47;5042863;28;49769;-74
2023/06/29 04:47:50;;;;;;;;;66.00;50.00;;;;;32.59;35.56;101071.78;5033741;28;45679;-74
2023/06/29 04:50:16;;;;;;;;;62.25;47.75;;;;;32.60;35.43;101075.41;5034078;28;45324;-74
2023/06/29 04:52:42;;;;;;;;;59.00;45.75;;;;;32.67;35.82;101079.91;5033917;28;45335;-74
2023/06/29 04:55:08;;;;;;;;;65.25;49.75;;;;;32.68;35.86;101080.78;5033940;28;45324;-73
2023/06/29 04:57:34;;;;;;;;;60.25;45.75;;;;;32.64;35.83;101082.28;5033613;28;45431;-72
2023/06/29 05:00:00;;;;;;;;;61.00;48.00;;;;;32.69;35.92;101088.94;5033893;28;45922;-74
2023/06/29 05:02:25;;;;;;;;;59.25;47.75;;;;;32.73;35.80;101092.19;5033105;28;45306;-75
2023/06/29 05:04:50;;;;;;;;;55.25;45.00;;;;;32.80;34.96;101094.97;5033888;28;45758;-73
2023/06/29 05:07:16;;;;;;;;;59.75;46.50;;;;;32.82;35.86;101095.63;5033542;28;45273;-75
2023/06/29 05:09:41;;;;;;;;;60.75;46.25;;;;;32.84;36.00;101096.25;5033528;28;45351;-76
2023/06/29 05:12:09;;;;;;;;;57.50;46.25;;;;;32.88;35.66;101103.13;5015012;28;51950;-75
2023/06/29 05:14:34;;;;;;;;;62.25;48.50;;;;;32.76;35.59;101086.19;5026896;28;45369;-73
2023/06/29 05:17:00;;;;;;;;;60.25;47.50;;;;;32.84;36.07;101088.78;5039390;28;45412;-74
2023/06/29 05:19:25;;;;;;;;;52.25;43.00;;;;;32.87;36.16;101093.06;5052133;28;46000;-73
2023/06/29 05:21:51;;;;;;;;;54.00;43.50;;;;;32.94;35.99;101094.81;5029723;28;45933;-77
2023/06/29 05:24:16;;;;;;;;;56.75;43.25;;;;;33.01;35.62;101087.34;5032839;28;45444;-75
2023/06/29 05:26:42;;;;;;;;;54.75;41.00;;;;;32.98;36.11;101092.50;5034741;28;46022;-75
2023/06/29 05:29:07;;;;;;;;;54.25;43.75;;;;;32.90;36.52;101089.91;5053304;28;45375;-77
2023/06/29 05:31:32;;;;;;;;;55.25;44.25;;;;;32.90;35.95;101099.09;5036357;28;45514;-74
2023/06/29 05:33:57;;;;;;;;;55.50;40.50;;;;;32.94;36.30;101092.03;5047795;28;45406;-73
2023/06/29 05:36:23;;;;;;;;;53.25;42.00;;;;;32.84;36.23;101085.16;5047825;28;45444;-77
2023/06/29 05:38:48;;;;;;;;;52.25;43.75;;;;;32.86;36.81;101092.22;5033360;28;45324;-74
2023/06/29 05:41:13;;;;;;;;;52.25;40.75;;;;;32.88;36.10;101100.34;5033426;28;45518;-75
2023/06/29 05:43:39;;;;;;;;;55.25;42.50;;;;;32.95;36.63;101098.44;5050281;28;45606;-78
2023/06/29 05:46:04;;;;;;;;;50.50;37.75;;;;;32.93;36.78;101092.25;5036246;28;45438;-76
2023/06/29 05:48:29;;;;;;;;;45.75;34.00;;;;;32.89;36.79;101091.81;5033008;28;45354;-74
2023/06/29 05:50:55;;;;;;;;;43.25;35.25;;;;;32.93;36.92;101092.25;5035177;28;45270;-74
2023/06/29 05:53:20;;;;;;;;;42.75;33.75;;;;;33.00;36.70;101094.00;5036514;28;45426;-76
2023/06/29 05:55:45;;;;;;;;;39.25;35.50;;;;;33.00;36.44;101087.59;5036203;28;45378;-72
2023/06/29 05:58:11;;;;;;;;;51.75;39.50;;;;;33.10;36.54;101095.50;5036479;28;45341;-77
2023/06/29 06:00:36;;;;;;;;;48.50;37.50;;;;;33.05;36.87;101094.22;5018285;28;45601;-78
2023/06/29 06:03:02;;;;;;;;;41.50;34.50;;;;;33.21;36.28;101090.22;5036582;28;45398;-77
2023/06/29 06:05:27;;;;;;;;;43.25;35.25;;;;;33.21;36.47;101093.00;5035974;28;45582;-75
2023/06/29 06:07:52;;;;;;;;;46.75;35.75;;;;;33.23;36.30;101088.09;5036625;28;46189;-76
2023/06/29 06:10:18;;;;;;;;;47.50;37.25;;;;;33.24;36.33;101084.28;5036409;28;45189;-75
2023/06/29 06:12:43;;;;;;;;;44.75;36.50;;;;;33.26;36.37;101078.50;5036977;28;45312;-76
2023/06/29 06:15:11;;;;;;;;;42.50;36.75;;;;;33.31;36.43;101096.25;5036284;28;45625;-75
2023/06/29 06:17:37;;;;;;;;;42.50;35.50;;;;;33.34;36.34;101084.72;5036210;28;45509;-76
2023/06/29 06:20:05;;;;;;;;;46.00;34.25;;;;;33.35;36.02;101074.44;5036185;28;45329;-76
2023/06/29 06:22:30;;;;;;;;;40.75;30.00;;;;;33.42;36.47;101069.75;5036635;28;45416;-76
2023/06/29 06:24:55;;;;;;;;;44.50;34.75;;;;;33.48;36.53;101077.25;5036264;28;45307;-76
2023/06/29 06:27:21;;;;;;;;;42.25;35.00;;;;;33.48;36.42;101088.38;5036508;28;45959;-75
2023/06/29 06:29:46;;;;;;;;;46.25;34.25;;;;;33.48;36.32;101077.25;5036209;28;45308;-75
2023/06/29 06:32:12;;;;;;;;;42.75;36.25;;;;;33.54;36.27;101081.09;5035784;28;45502;-77
2023/06/29 06:34:37;;;;;;;;;48.00;36.25;;;;;33.49;36.48;101084.53;5050462;28;45472;-76
2023/06/29 06:37:04;;;;;;;;;43.25;33.25;;;;;33.42;36.44;101084.53;5045858;28;46016;-76
2023/06/29 06:39:32;;;;;;;;;42.50;36.00;;;;;33.56;36.30;101090.94;5035671;28;45323;-75
2023/06/29 06:42:01;;;;;;;;;44.25;35.75;;;;;33.60;36.18;101094.16;5039799;28;45503;-76
2023/06/29 06:44:26;;;;;;;;;46.25;36.75;;;;;33.59;36.52;101087.75;5051943;28;45510;-76
2023/06/29 06:46:51;;;;;;;;;38.25;34.00;;;;;33.57;36.13;101087.09;5035559;28;46068;-75
2023/06/29 06:49:17;;;;;;;;;47.25;34.75;;;;;33.63;36.44;101091.81;5035813;28;45216;-75
2023/06/29 06:51:42;;;;;;;;;40.25;34.50;;;;;33.53;36.39;101087.72;5035778;28;45346;-75
2023/06/29 06:54:08;;;;;;;;;40.25;34.00;;;;;33.57;36.17;101092.66;5035555;28;45310;-77
2023/06/29 06:56:33;;;;;;;;;37.50;30.50;;;;;33.66;36.21;101091.38;5036008;28;45258;-74
2023/06/29 06:58:59;;;;;;;;;40.25;34.75;;;;;33.68;36.52;101091.19;5049120;28;45224;-74
2023/06/29 07:01:25;;;;;;;;;38.00;31.75;;;;;33.71;36.24;101085.16;5035451;28;45342;-73
2023/06/29 07:03:51;;;;;;;;;39.00;32.00;;;;;33.74;36.17;101090.34;5034964;28;45645;-75
2023/06/29 07:06:17;;;;;;;;;45.75;34.75;;;;;33.77;36.32;101089.94;5035282;28;46897;-75
2023/06/29 07:08:43;;;;;;;;;46.25;35.25;;;;;33.71;36.43;101087.94;5039916;28;45360;-75
2023/06/29 07:11:08;;;;;;;;;38.00;32.75;;;;;33.71;36.00;101091.59;5048810;28;45517;-76
2023/06/29 07:13:33;;;;;;;;;44.25;34.75;;;;;33.64;35.99;101089.88;5048216;28;45501;-74
2023/06/29 07:15:59;;;;;;;;;42.25;31.75;;;;;33.74;36.23;101093.13;5042046;28;46129;-74
2023/06/29 07:18:24;;;;;;;;;38.00;31.25;;;;;33.85;36.26;101084.16;5050739;28;45462;-75
2023/06/29 07:20:50;;;;;;;;;44.00;32.00;;;;;33.86;36.02;101091.41;5054643;28;45498;-74
2023/06/29 07:23:15;;;;;;;;;40.75;33.25;;;;;33.82;36.05;101079.00;5039062;28;45365;-76
2023/06/29 07:25:41;;;;;;;;;38.50;33.75;;;;;33.76;35.97;101075.16;5044042;28;45760;-75
2023/06/29 07:28:06;;;;;;;;;36.25;32.25;;;;;33.84;35.73;101082.44;5032544;28;45396;-74
2023/06/29 07:30:32;;;;;;;;;43.00;32.25;;;;;33.87;35.93;101087.56;5034642;28;45397;-75
2023/06/29 07:32:57;;;;;;;;;46.00;36.00;;;;;33.86;36.16;101083.06;5035390;28;45316;-73
2023/06/29 07:35:22;;;;;;;;;40.75;32.50;;;;;34.00;35.65;101083.91;5055140;28;45410;-74
2023/06/29 07:37:48;;;;;;;;;37.50;32.00;;;;;34.00;35.86;101079.22;5038526;28;45324;-74
2023/06/29 07:40:13;;;;;;;;;41.00;35.00;;;;;33.95;35.74;101081.78;5034819;28;45296;-74
2023/06/29 07:42:39;;;;;;;;;39.50;30.00;;;;;33.78;36.13;101070.22;5044125;28;45320;-74
2023/06/29 07:45:05;;;;;;;;;41.00;32.50;;;;;33.73;35.86;101072.81;5053056;28;45502;-76
2023/06/29 07:47:31;;;;;;;;;44.50;35.00;;;;;33.80;36.01;101076.44;5021990;28;45909;-74
2023/06/29 07:49:56;;;;;;;;;45.50;34.25;;;;;33.82;35.93;101067.88;5055023;28;45368;-74
2023/06/29 07:52:22;;;;;;;;;47.00;36.50;;;;;33.95;36.31;101072.56;5054872;28;45509;-75
2023/06/29 07:54:49;;;;;;;;;44.50;34.75;;;;;33.95;35.81;101076.19;5053932;28;45517;-75
2023/06/29 07:57:14;;;;;;;;;44.75;35.00;;;;;33.97;36.13;101071.28;5054721;28;45367;-76
2023/06/29 07:59:40;;;;;;;;;34.25;25.75;;;;;34.04;35.87;101072.13;5036700;28;46049;-75
2023/06/29 08:02:05;;;;;;;;;41.25;34.75;;;;;34.01;35.46;101069.81;5053612;28;45493;-74
2023/06/29 08:04:31;;;;;;;;;41.50;31.25;;;;;34.03;35.73;101069.56;5054186;28;46023;-76
2023/06/29 08:06:56;;;;;;;;;45.25;34.75;;;;;34.06;35.55;101072.78;5054699;28;45271;-76
2023/06/29 08:09:21;;;;;;;;;45.75;35.75;;;;;34.05;35.38;101059.94;5054723;28;45425;-75
2023/06/29 08:11:47;;;;;;;;;47.00;35.50;;;;;34.12;35.38;101069.13;5054352;28;45458;-75
2023/06/29 08:14:12;;;;;;;;;42.75;33.00;;;;;34.10;35.48;101057.38;5040513;28;47163;-76
2023/06/29 08:16:37;;;;;;;;;39.75;31.75;;;;;34.18;35.35;101057.16;5038814;28;45372;-75
2023/06/29 08:19:03;;;;;;;;;41.50;34.00;;;;;34.20;35.42;101056.06;5034080;28;45286;-75
2023/06/29 08:21:28;;;;;;;;;44.75;36.00;;;;;34.33;34.97;101068.06;5034082;28;45405;-73
2023/06/29 08:23:53;;;;;;;;;37.00;31.25;;;;;34.28;35.22;101061.44;5034107;28;50904;-75
2023/06/29 08:26:20;;;;;;;;;37.75;33.75;;;;;34.40;35.00;101062.47;5033817;28;45250;-76
2023/06/29 08:28:46;;;;;;;;;49.00;34.00;;;;;34.42;35.12;101060.31;5020615;28;45593;-73
2023/06/29 08:31:12;;;;;;;;;39.25;31.50;;;;;34.49;35.30;101058.38;5037239;28;45627;-75
2023/06/29 08:33:38;;;;;;;;;42.00;34.00;;;;;34.67;34.43;101061.28;5040600;28;45557;-72
2023/06/29 08:36:03;;;;;;;;;39.50;34.25;;;;;34.79;34.60;101061.50;5030187;28;45366;-75
2023/06/29 08:38:29;;;;;;;;;40.50;34.00;;;;;34.73;34.21;101056.75;5045001;28;45292;-74
2023/06/29 08:40:58;;;;;;;;;37.00;32.75;;;;;34.75;34.39;101063.88;5039761;28;45440;-74
2023/06/29 08:43:23;;;;;;;;;34.75;29.75;;;;;34.74;34.46;101053.78;5037834;28;45814;-75
2023/06/29 08:45:49;;;;;;;;;38.50;31.75;;;;;34.74;34.18;101064.09;5039030;28;45482;-74
2023/06/29 08:48:17;;;;;;;;;40.00;33.25;;;;;34.73;34.38;101067.91;5034159;28;45300;-73
2023/06/29 08:50:49;;;;;;;;;49.50;37.50;;;;;34.65;34.58;101057.88;5033937;28;45451;-76
2023/06/29 08:53:15;;;;;;;;;44.25;34.00;;;;;34.70;34.53;101052.50;5033540;28;45569;-75
2023/06/29 08:55:42;;;;;;;;;42.00;35.00;;;;;34.60;34.56;101056.84;5033568;28;45546;-74
2023/06/29 08:58:07;;;;;;;;;40.75;33.25;;;;;34.61;34.39;101041.84;5034213;28;45353;-75
2023/06/29 09:00:33;;;;;;;;;39.25;33.75;;;;;34.66;34.45;101058.72;5044419;28;45523;-74
2023/06/29 09:02:58;;;;;;;;;42.00;35.50;;;;;34.54;34.36;101052.97;5053825;28;45320;-73
2023/06/29 09:05:24;;;;;;;;;42.75;34.50;;;;;34.10;34.94;101059.31;5052988;28;45396;-75
2023/06/29 09:07:50;;;;;;;;;35.00;31.00;;;;;33.74;35.96;101065.31;5053767;28;45453;-74
2023/06/29 09:10:16;;;;;;;;;47.75;34.75;;;;;33.76;35.36;101058.47;5053687;28;45496;-73
2023/06/29 09:12:41;;;;;;;;;40.00;34.25;;;;;33.72;36.09;101053.50;5053697;28;46026;-72
2023/06/29 09:15:11;;;;;;;;;44.00;36.50;;;;;33.85;35.38;101053.56;5044269;28;45463;-75
2023/06/29 09:17:36;;;;;;;;;36.25;30.00;;;;;33.88;35.27;101053.09;5044031;28;45338;-74
2023/06/29 09:20:13;;;;;;;;;44.00;34.00;;;;;33.95;35.47;101050.31;5033361;28;45469;-74
2023/06/29 09:22:39;;;;;;;;;50.75;38.50;;;;;34.08;35.41;101048.38;5044771;28;45384;-74
2023/06/29 09:25:06;;;;;;;;;42.25;33.75;;;;;34.20;35.29;101050.50;5050133;28;45529;-73
2023/06/29 09:27:33;;;;;;;;;45.50;35.75;;;;;34.41;34.57;101044.69;5018698;28;45458;-74
2023/06/29 09:30:00;;;;;;;;;44.75;35.50;;;;;34.48;34.97;101048.28;5034956;28;45350;-74
2023/06/29 09:32:28;;;;;;;;;41.00;32.75;;;;;34.29;34.33;101038.06;5034616;28;45415;-74
2023/06/29 09:34:53;;;;;;;;;37.00;30.50;;;;;34.35;34.27;101048.34;5053418;28;45385;-74
2023/06/29 09:37:19;;;;;;;;;39.50;33.25;;;;;34.43;34.38;101051.75;5045134;28;45318;-73
2023/06/29 09:39:56;;;;;;;;;38.25;34.25;;;;;34.44;34.12;101059.03;5036197;28;45541;-73
2023/06/29 09:42:23;;;;;;;;;36.25;32.00;;;;;34.20;34.37;101062.47;5043851;28;46172;-73
2023/06/29 09:44:48;;;;;;;;;42.25;33.25;;;;;34.20;34.27;101061.63;5043628;28;45350;-71
2023/06/29 09:47:14;;;;;;;;;39.75;31.00;;;;;34.33;34.34;101064.41;5036051;28;45521;-73
2023/06/29 09:49:49;;;;;;;;;34.25;29.75;;;;;34.50;34.11;101062.88;5036638;28;45636;-72
2023/06/29 09:52:16;;;;;;;;;38.25;31.50;;;;;34.65;34.27;101057.00;5037423;28;45979;-73
2023/06/29 09:54:42;;;;;;;;;39.75;30.75;;;;;34.85;33.54;101063.41;5056372;28;45386;-75
2023/06/29 09:57:10;;;;;;;;;42.00;36.25;;;;;34.80;33.29;101064.03;5038717;28;45288;-75
2023/06/29 09:59:39;;;;;;;;;38.75;32.00;;;;;34.71;32.92;101056.16;5055655;28;45548;-75
2023/06/29 10:02:08;;;;;;;;;32.75;27.00;;;;;34.72;33.14;101057.84;5053622;28;45566;-75
2023/06/29 10:04:34;;;;;;;;;40.25;29.50;;;;;34.76;33.14;101056.38;5018898;28;45518;-76
2023/06/29 10:07:05;;;;;;;;;38.00;32.75;;;;;34.83;32.85;101060.81;5036454;28;45424;-76
2023/06/29 10:09:37;;;;;;;;;44.25;34.50;;;;;34.89;32.99;101064.66;5034223;28;45920;-76
2023/06/29 10:12:03;;;;;;;;;32.00;27.25;;;;;35.00;32.90;101054.75;5035939;28;46552;-74
2023/06/29 10:14:30;;;;;;;;;39.75;33.00;;;;;34.88;32.77;101063.78;5036313;28;45357;-75
2023/06/29 10:16:55;;;;;;;;;37.75;30.25;;;;;34.99;32.96;101055.81;5036262;28;45272;-75
2023/06/29 10:19:22;;;;;;;;;41.00;31.50;;;;;34.74;32.62;101058.50;5036306;28;45581;-76
2023/06/29 10:21:53;;;;;;;;;30.75;28.25;;;;;34.81;32.69;101057.41;5018490;28;46697;-74
2023/06/29 10:24:24;;;;;;;;;31.25;28.25;;;;;34.85;32.57;101067.03;5036655;28;45288;-75
2023/06/29 10:26:50;;;;;;;;;38.50;32.50;;;;;34.83;32.89;101063.63;5036152;28;45352;-74
2023/06/29 10:29:17;;;;;;;;;33.25;28.25;;;;;34.57;32.94;101069.25;5036322;28;45240;-75
2023/06/29 10:31:48;;;;;;;;;35.75;25.50;;;;;34.53;33.02;101068.84;5036763;28;45473;-74
2023/06/29 10:34:14;;;;;;;;;33.50;29.25;;;;;34.44;32.70;101070.19;5053069;28;45880;-76
2023/06/29 10:36:48;;;;;;;;;33.50;27.00;;;;;34.57;33.10;101065.63;5040346;28;45421;-74
2023/06/29 10:39:39;;;;;;;;;38.75;32.25;;;;;34.49;33.49;101067.56;5036008;28;45411;-75
2023/06/29 10:42:23;;;;;;;;;39.50;29.25;;;;;34.50;32.90;101063.72;5040852;28;45362;-73
2023/06/29 10:44:49;;;;;;;;;34.50;31.00;;;;;34.23;33.44;101064.81;5049453;28;45231;-76
2023/06/29 10:47:28;;;;;;;;;39.00;33.25;;;;;34.32;33.14;101048.78;5035867;28;45387;-75
2023/06/29 10:50:17;;;;;;;;;44.00;34.25;;;;;34.42;33.18;101049.19;5047817;28;45424;-75
2023/06/29 10:52:43;;;;;;;;;44.00;37.00;;;;;34.39;33.21;101056.03;5035746;28;47156;-76
2023/06/29 10:55:22;;;;;;;;;36.00;33.00;;;;;34.41;33.12;101039.13;5035683;28;45510;-74
2023/06/29 10:57:53;;;;;;;;;37.25;32.50;;;;;34.72;32.72;101038.34;5049329;28;45350;-75
2023/06/29 11:00:19;;;;;;;;;34.00;32.25;;;;;34.84;32.84;101028.25;5035821;28;45325;-74
2023/06/29 11:02:47;;;;;;;;;48.75;37.25;;;;;34.92;32.30;101031.63;5035492;28;45309;-74
2023/06/29 11:05:17;;;;;;;;;46.25;34.50;;;;;35.07;32.57;101025.75;5035574;28;45489;-74
2023/06/29 11:07:44;;;;;;;;;41.00;32.75;;;;;35.18;31.69;101015.81;5035890;28;45490;-75
2023/06/29 11:10:11;;;;;;;;;46.25;37.00;;;;;35.37;31.71;101028.81;5035445;28;45549;-75
2023/06/29 11:12:37;;;;;;;;;40.00;34.25;;;;;35.50;31.05;101034.25;5030634;28;46205;-74
2023/06/29 11:15:10;;;;;;;;;47.75;35.00;;;;;35.63;29.91;101020.22;5040613;28;45379;-74
2023/06/29 11:17:36;;;;;;;;;43.75;35.75;;;;;35.59;30.60;101018.97;5035543;28;45453;-75
2023/06/29 11:20:01;;;;;;;;;38.00;32.00;;;;;35.70;30.63;101030.47;5035509;28;45655;-75
2023/06/29 11:22:27;;;;;;;;;42.00;34.00;;;;;35.75;30.32;101020.34;5035441;28;46068;-74
2023/06/29 11:24:52;;;;;;;;;50.50;38.00;;;;;35.59;30.75;101015.31;5035342;28;45423;-73
2023/06/29 11:27:18;;;;;;;;;49.50;37.00;;;;;35.52;31.04;101032.09;5035607;28;45355;-74
2023/06/29 11:29:43;;;;;;;;;41.75;35.75;;;;;35.50;30.90;101023.09;5035306;28;45437;-76
2023/06/29 11:32:15;;;;;;;;;44.50;37.00;;;;;35.40;31.05;101028.34;5034809;28;45951;-75
2023/06/29 11:34:40;;;;;;;;;49.00;38.25;;;;;35.16;31.63;101026.34;5032861;28;45269;-74
2023/06/29 11:37:09;;;;;;;;;47.50;37.25;;;;;35.04;31.36;101025.34;5040601;28;45974;-76
2023/06/29 11:39:34;;;;;;;;;48.00;36.75;;;;;34.91;31.30;101021.56;5036189;28;45521;-73
2023/06/29 11:42:07;;;;;;;;;41.75;36.00;;;;;34.74;31.55;101017.59;5044593;28;46204;-73
2023/06/29 11:44:33;;;;;;;;;46.00;37.75;;;;;34.53;32.28;101024.31;5049713;28;45412;-74
2023/06/29 11:46:58;;;;;;;;;48.75;36.00;;;;;34.50;32.31;101026.66;5053568;28;45423;-75
2023/06/29 11:49:24;;;;;;;;;52.25;38.50;;;;;34.34;32.57;101028.00;5035350;28;45619;-74
2023/06/29 11:51:50;;;;;;;;;42.00;34.00;;;;;34.29;32.78;101018.59;5034064;28;45575;-74
2023/06/29 11:54:16;;;;;;;;;49.75;37.50;;;;;34.27;32.68;101023.53;5046495;28;45395;-74
2023/06/29 11:56:42;;;;;;;;;47.00;37.75;;;;;34.21;32.71;101022.44;5032365;28;45519;-74
2023/06/29 11:59:10;;;;;;;;;51.00;37.25;;;;;34.20;32.67;101017.09;5030264;28;46052;-73
2023/06/29 12:01:38;;;;;;;;;41.75;29.00;;;;;34.08;32.71;101019.69;5033597;28;45456;-74
2023/06/29 12:04:07;;;;;;;;;50.50;40.50;;;;;34.14;32.42;101014.09;5047145;28;45567;-71
2023/06/29 12:06:33;;;;;;;;;49.25;40.00;;;;;34.37;32.24;101019.19;5034241;28;45419;-73
2023/06/29 12:08:58;;;;;;;;;39.25;34.50;;;;;34.57;31.58;101013.56;5037118;28;45386;-71
2023/06/29 12:11:25;;;;;;;;;45.50;37.25;;;;;34.81;31.74;101004.47;5054160;28;45466;-71
2023/06/29 12:13:52;;;;;;;;;41.25;35.50;;;;;35.00;30.82;100993.44;5034792;28;45600;-73
2023/06/29 12:16:19;;;;;;;;;37.50;33.25;;;;;35.33;30.07;101001.59;5033879;28;45387;-72
2023/06/29 12:18:45;;;;;;;;;39.25;32.25;;;;;35.48;29.11;101004.88;5033957;28;45387;-73
2023/06/29 12:21:10;;;;;;;;;39.25;35.25;;;;;35.75;29.16;101000.81;5034236;28;45367;-73
2023/06/29 12:23:35;;;;;;;;;42.75;36.00;;;;;35.97;29.55;101004.91;5033890;28;45346;-73
2023/06/29 12:26:01;;;;;;;;;35.00;32.00;;;;;36.24;29.32;101001.84;5034252;28;45288;-72
2023/06/29 12:28:26;;;;;;;;;49.50;36.25;;;;;36.39;29.21;100999.50;5034006;28;45546;-72
2023/06/29 12:30:51;;;;;;;;;48.75;37.75;;;;;36.51;28.81;100993.97;5033721;28;45315;-73
2023/06/29 12:33:17;;;;;;;;;37.25;31.75;;;;;36.62;28.46;100994.03;5037438;28;45342;-73
2023/06/29 12:35:42;;;;;;;;;39.25;34.75;;;;;36.81;28.47;100978.13;5032621;28;45359;-72
2023/06/29 12:38:08;;;;;;;;;36.50;31.50;;;;;37.10;28.29;100988.41;5044189;28;45633;-72
2023/06/29 12:40:34;;;;;;;;;34.50;30.50;;;;;37.27;27.21;100991.41;5050635;28;45444;-73
2023/06/29 12:43:02;;;;;;;;;31.50;28.25;;;;;37.17;27.53;100988.38;5047999;28;45437;-70
2023/06/29 12:45:27;;;;;;;;;38.00;33.00;;;;;36.99;26.64;100983.69;5042493;28;45385;-74
2023/06/29 12:47:54;;;;;;;;;40.00;35.00;;;;;36.73;27.24;100992.44;5034099;28;45391;-73
2023/06/29 12:50:19;;;;;;;;;32.50;30.75;;;;;36.36;27.46;100986.88;5034292;28;45571;-73
2023/06/29 12:52:48;;;;;;;;;34.75;30.00;;;;;36.29;27.85;100982.44;5038146;28;45518;-72
2023/06/29 12:55:14;;;;;;;;;41.00;34.50;;;;;36.50;27.77;100983.88;5054293;28;45492;-73
2023/06/29 12:57:41;;;;;;;;;36.50;31.25;;;;;36.93;27.76;100979.00;5035039;28;45439;-72
2023/06/29 13:00:08;;;;;;;;;31.50;29.50;;;;;37.00;27.65;100987.31;5031141;28;46264;-72
2023/06/29 13:02:33;;;;;;;;;32.00;30.25;;;;;37.10;27.98;100981.97;5037595;28;45375;-73
2023/06/29 13:04:58;;;;;;;;;43.50;34.25;;;;;37.15;27.50;100982.16;5037693;28;45347;-72
2023/06/29 13:07:24;;;;;;;;;27.25;24.25;;;;;37.07;27.42;100988.91;5037389;28;45553;-72
2023/06/29 13:09:51;;;;;;;;;40.00;31.25;;;;;36.97;27.74;100980.25;5037458;28;45358;-72
2023/06/29 13:12:17;;;;;;;;;36.00;30.00;;;;;36.79;27.57;100974.72;5037554;28;45244;-73
2023/06/29 13:14:44;;;;;;;;;33.25;32.50;;;;;36.74;28.16;100983.81;5037599;28;45340;-72
2023/06/29 13:17:10;;;;;;;;;36.25;31.25;;;;;36.68;27.96;100993.13;5037189;28;45330;-72
2023/06/29 13:19:39;;;;;;;;;35.50;27.00;;;;;36.67;27.98;100982.19;5037395;28;46057;-70
2023/06/29 13:22:05;;;;;;;;;31.50;29.00;;;;;36.97;27.84;100980.25;5034036;28;45539;-71
2023/06/29 13:24:32;;;;;;;;;25.50;24.25;;;;;37.30;27.03;100978.91;5044329;28;45418;-72
2023/06/29 13:26:57;;;;;;;;;29.50;26.75;;;;;37.41;27.18;100978.09;5036735;28;45575;-72
2023/06/29 13:29:23;;;;;;;;;33.25;26.25;;;;;37.39;27.00;100974.66;5036883;28;45297;-72
2023/06/29 13:31:48;;;;;;;;;28.75;23.75;;;;;37.35;26.47;100974.28;5056748;28;45409;-72
2023/06/29 13:34:14;;;;;;;;;29.75;26.25;;;;;37.12;27.19;100971.41;5053824;28;45520;-73
2023/06/29 13:36:39;;;;;;;;;28.75;22.25;;;;;36.93;27.24;100969.78;5049936;28;45391;-71
2023/06/29 13:39:05;;;;;;;;;29.25;24.50;;;;;36.61;27.64;100981.16;5041299;28;45339;-72
2023/06/29 13:41:38;;;;;;;;;25.25;20.25;;;;;36.30;28.31;100996.19;5032423;28;45222;-72
2023/06/29 13:44:05;;;;;;;;;25.75;23.25;;;;;35.79;29.00;100990.91;5056492;28;45236;-71
2023/06/29 13:46:32;;;;;;;;;32.25;21.25;;;;;35.56;29.55;100991.50;5036742;28;45256;-71
2023/06/29 13:48:58;;;;;;;;;16.50;15.50;;;;;35.38;29.42;100996.19;5036604;28;45512;-73
2023/06/29 13:51:23;;;;;;;;;29.25;22.50;;;;;35.15;30.03;100994.81;5036830;28;45481;-73
2023/06/29 13:53:49;;;;;;;;;22.00;20.00;;;;;35.09;29.45;101001.31;5049298;28;45541;-72
2023/06/29 13:56:14;;;;;;;;;25.25;21.75;;;;;34.83;29.87;100993.97;5049419;28;45559;-73
2023/06/29 13:58:40;;;;;;;;;23.50;18.75;;;;;34.67;30.19;100999.16;5018532;28;46244;-71
2023/06/29 14:01:05;;;;;;;;;16.75;15.75;;;;;34.64;29.78;100991.25;5036478;28;45398;-72
2023/06/29 14:03:30;;;;;;;;;23.50;19.50;;;;;34.66;29.39;101016.94;5036849;28;45561;-71
2023/06/29 14:05:56;;;;;;;;;24.00;19.25;;;;;34.42;29.67;101024.97;5036616;28;49033;-72
2023/06/29 14:08:21;;;;;;;;;24.75;18.75;;;;;34.07;29.09;101023.53;5036177;28;46356;-71
2023/06/29 14:10:46;;;;;;;;;19.00;18.75;;;;;34.05;29.28;101022.91;5053901;28;45727;-74
2023/06/29 14:13:12;;;;;;;;;21.50;18.25;;;;;34.10;29.87;101012.00;5042184;28;45693;-75
2023/06/29 14:15:37;;;;;;;;;24.75;21.50;;;;;34.09;29.76;101010.28;5036422;28;45599;-75
2023/06/29 14:18:03;;;;;;;;;30.00;25.75;;;;;34.12;29.56;101012.59;5035915;28;45646;-75
2023/06/29 14:20:28;;;;;;;;;21.75;21.25;;;;;33.97;29.74;101012.88;5036415;28;45563;-73
2023/06/29 14:22:54;;;;;;;;;22.50;18.00;;;;;33.87;29.45;101017.16;5036414;28;45425;-72
2023/06/29 14:25:19;;;;;;;;;16.25;15.25;;;;;33.72;29.04;101020.13;5036255;28;45548;-74
2023/06/29 14:27:44;;;;;;;;;19.25;17.75;;;;;33.67;29.31;101020.78;5036340;28;45257;-74
2023/06/29 14:30:11;;;;;;;;;19.00;16.25;;;;;33.65;29.64;101010.94;5035894;28;51565;-73
2023/06/29 14:32:36;;;;;;;;;10.50;9.25;;;;;33.62;29.97;101014.16;5029028;28;45340;-74
2023/06/29 14:35:02;;;;;;;;;18.75;17.25;;;;;33.60;30.07;101016.31;5055507;28;45560;-73
2023/06/29 14:37:28;;;;;;;;;21.00;17.50;;;;;33.52;30.21;101019.31;5042534;28;46123;-72
2023/06/29 14:39:54;;;;;;;;;18.25;15.25;;;;;33.66;30.01;101021.00;5047103;28;45344;-73
2023/06/29 14:42:19;;;;;;;;;23.75;16.25;;;;;33.40;30.64;101025.50;5049289;28;45324;-78
2023/06/29 14:44:45;;;;;;;;;19.75;17.75;;;;;33.24;31.04;101027.84;5049848;28;45451;-74
2023/06/29 14:47:10;;;;;;;;;15.50;15.50;;;;;33.27;30.73;101032.94;5035845;28;45333;-72
2023/06/29 14:49:35;;;;;;;;;18.50;14.25;;;;;33.19;31.11;101036.75;5035730;28;45391;-74
2023/06/29 14:52:01;;;;;;;;;15.00;13.75;;;;;33.30;30.84;101040.88;5035990;28;45301;-74
2023/06/29 14:54:26;;;;;;;;;20.75;17.00;;;;;33.38;31.22;101037.88;5053144;28;45608;-73
2023/06/29 14:56:51;;;;;;;;;19.00;17.00;;;;;33.47;30.90;101032.97;5043170;28;52472;-72
2023/06/29 14:59:16;;;;;;;;;20.75;17.25;;;;;33.56;31.00;101027.00;5035793;28;45171;-72
2023/06/29 15:01:42;;;;;;;;;17.00;14.50;;;;;33.70;31.06;101038.94;5030046;28;45782;-73
2023/06/29 15:04:07;;;;;;;;;19.50;17.00;;;;;33.67;31.23;101025.50;5049538;28;45541;-72
2023/06/29 15:06:32;;;;;;;;;14.75;12.00;;;;;33.68;31.48;101024.44;5035791;28;45197;-73
2023/06/29 15:08:58;;;;;;;;;17.75;15.00;;;;;33.64;31.45;101023.13;5040899;28;45326;-71
2023/06/29 15:11:25;;;;;;;;;16.50;14.75;;;;;33.60;31.58;101016.31;5042944;28;45299;-75
2023/06/29 15:13:50;;;;;;;;;17.75;15.50;;;;;33.54;32.06;101022.69;5035483;28;45513;-74
2023/06/29 15:16:15;;;;;;;;;17.00;15.50;;;;;33.51;31.87;101012.03;5035103;28;45375;-75
2023/06/29 15:18:41;;;;;;;;;16.00;15.50;;;;;33.64;31.81;101026.78;5035212;28;45355;-75
2023/06/29 15:21:06;;;;;;;;;14.75;14.00;;;;;33.72;31.48;101026.56;5035630;28;45194;-73
2023/06/29 15:23:31;;;;;;;;;18.00;14.75;;;;;33.79;31.61;101030.22;5017164;28;47039;-73
2023/06/29 15:25:57;;;;;;;;;17.00;16.00;;;;;33.89;31.58;101034.50;5035420;28;46117;-73
2023/06/29 15:28:22;;;;;;;;;20.75;17.00;;;;;33.87;31.75;101023.56;5017283;28;45430;-73
2023/06/29 15:30:50;;;;;;;;;17.00;11.25;;;;;33.80;32.41;101018.03;5034971;28;45512;-73
2023/06/29 15:33:15;;;;;;;;;20.75;16.00;;;;;33.76;33.00;101038.16;5020528;28;45586;-75
2023/06/29 15:35:41;;;;;;;;;19.75;15.50;;;;;33.61;33.16;101038.31;5054573;28;45448;-73